createdAt,value
2024-04-16T00:00:21.452Z,4.54
2024-04-16T00:01:24.000Z,4.53
2024-04-16T00:02:26.594Z,4.51
2024-04-16T00:03:29.092Z,4.51
2024-04-16T00:04:31.605Z,4.51
2024-04-16T00:05:34.230Z,4.50
2024-04-16T00:06:36.987Z,4.50
2024-04-16T00:07:39.383Z,4.48
2024-04-16T00:08:41.971Z,4.49
2024-04-16T00:09:44.472Z,4.50
2024-04-16T00:10:47.564Z,4.51
2024-04-16T00:11:50.014Z,4.51
2024-04-16T00:13:06.836Z,4.51
2024-04-16T00:14:34.450Z,4.54
2024-04-16T00:15:37.148Z,4.53
2024-04-16T00:16:39.789Z,4.55
2024-04-16T00:17:42.675Z,4.57
2024-04-16T00:18:46.479Z,4.58
2024-04-16T00:19:49.065Z,4.57
2024-04-16T00:20:51.414Z,4.58
2024-04-16T00:21:53.889Z,4.58
2024-04-16T00:22:56.213Z,4.60
2024-04-16T00:23:58.562Z,4.61
2024-04-16T00:25:01.096Z,4.61
2024-04-16T00:26:04.509Z,4.62
2024-04-16T00:27:06.981Z,4.62
2024-04-16T00:28:09.501Z,4.62
2024-04-16T00:29:11.916Z,4.63
2024-04-16T00:30:14.399Z,4.64
2024-04-16T00:31:17.001Z,4.64
2024-04-16T00:32:21.960Z,4.64
2024-04-16T00:33:25.069Z,4.64
2024-04-16T00:34:27.682Z,4.64
2024-04-16T00:35:30.201Z,4.64
2024-04-16T00:36:32.650Z,4.63
2024-04-16T00:37:35.503Z,4.63
2024-04-16T00:38:37.998Z,4.63
2024-04-16T00:39:40.543Z,4.62
2024-04-16T00:40:43.153Z,4.63
2024-04-16T00:41:49.095Z,4.62
2024-04-16T00:42:54.769Z,4.62
2024-04-16T00:43:57.928Z,4.63
2024-04-16T00:45:00.430Z,4.65
2024-04-16T00:46:03.547Z,4.64
2024-04-16T00:47:08.750Z,4.65
2024-04-16T00:48:11.187Z,4.66
2024-04-16T00:49:14.042Z,4.65
2024-04-16T00:50:16.799Z,4.67
2024-04-16T00:51:19.441Z,4.69
2024-04-16T00:52:22.144Z,4.70
2024-04-16T00:53:26.305Z,4.72
2024-04-16T00:54:29.088Z,4.74
2024-04-16T00:55:31.625Z,4.74
2024-04-16T00:56:40.730Z,4.75
2024-04-16T00:57:43.386Z,4.77
2024-04-16T00:58:47.271Z,4.77
2024-04-16T00:59:52.011Z,4.80
2024-04-16T01:00:54.692Z,4.80
2024-04-16T01:01:57.571Z,4.82
2024-04-16T01:03:00.141Z,4.83
2024-04-16T01:04:02.945Z,4.84
2024-04-16T01:05:05.654Z,4.85
2024-04-16T01:06:08.388Z,4.84
2024-04-16T01:07:10.752Z,4.85
2024-04-16T01:08:13.949Z,4.86
2024-04-16T01:09:19.535Z,4.85
2024-04-16T01:10:22.470Z,4.85
2024-04-16T01:11:27.001Z,4.85
2024-04-16T01:12:29.533Z,4.84
2024-04-16T01:13:32.146Z,4.84
2024-04-16T01:14:34.737Z,4.84
2024-04-16T01:15:37.403Z,4.85
2024-04-16T01:16:40.068Z,4.85
2024-04-16T01:17:43.474Z,4.85
2024-04-16T01:18:46.061Z,4.85
2024-04-16T01:19:48.508Z,4.82
2024-04-16T01:20:51.255Z,4.83
2024-04-16T01:21:53.578Z,4.81
2024-04-16T01:22:56.144Z,4.81
2024-04-16T01:23:58.736Z,4.80
2024-04-16T01:25:01.412Z,4.79
2024-04-16T01:26:04.010Z,4.77
2024-04-16T01:27:07.276Z,4.75
2024-04-16T01:28:09.549Z,4.75
2024-04-16T01:29:12.013Z,4.76
2024-04-16T01:30:14.598Z,4.77
2024-04-16T01:31:17.352Z,4.75
2024-04-16T01:32:20.387Z,4.76
2024-04-16T01:33:22.955Z,4.79
2024-04-16T01:34:25.413Z,4.79
2024-04-16T01:35:28.046Z,4.80
2024-04-16T01:36:30.506Z,4.80
2024-04-16T01:37:33.143Z,4.83
2024-04-16T01:38:35.561Z,4.84
2024-04-16T01:39:38.577Z,4.85
2024-04-16T01:40:41.384Z,4.86
2024-04-16T01:41:44.097Z,4.87
2024-04-16T01:42:46.511Z,4.86
2024-04-16T01:43:49.008Z,4.88
2024-04-16T01:44:52.728Z,4.88
2024-04-16T01:45:55.561Z,4.87
2024-04-16T01:46:57.922Z,4.89
2024-04-16T01:48:00.903Z,4.90
2024-04-16T01:49:03.679Z,4.92
2024-04-16T01:50:06.462Z,4.91
2024-04-16T01:51:09.067Z,4.93
2024-04-16T01:52:11.668Z,4.95
2024-04-16T01:53:14.163Z,4.94
2024-04-16T01:54:16.707Z,4.96
2024-04-16T01:55:19.188Z,4.97
2024-04-16T01:56:21.874Z,4.97
2024-04-16T01:57:24.709Z,4.99
2024-04-16T01:58:27.209Z,5.00
2024-04-16T01:59:30.204Z,5.01
2024-04-16T02:00:32.746Z,5.05
2024-04-16T02:01:35.722Z,5.06
2024-04-16T02:02:41.256Z,5.07
2024-04-16T02:03:43.721Z,5.11
2024-04-16T02:04:46.494Z,5.13
2024-04-16T02:05:49.047Z,5.15
2024-04-16T02:06:51.683Z,5.16
2024-04-16T02:07:54.055Z,5.17
2024-04-16T02:08:58.241Z,5.17
2024-04-16T02:10:00.742Z,5.17
2024-04-16T02:11:03.620Z,5.19
2024-04-16T02:12:06.743Z,5.20
2024-04-16T02:13:09.296Z,5.19
2024-04-16T02:14:12.020Z,5.20
2024-04-16T02:15:15.964Z,5.21
2024-04-16T02:16:18.252Z,5.22
2024-04-16T02:17:22.715Z,5.23
2024-04-16T02:18:25.319Z,5.24
2024-04-16T02:19:27.726Z,5.27
2024-04-16T02:20:30.281Z,5.30
2024-04-16T02:21:33.908Z,5.31
2024-04-16T02:22:36.511Z,5.33
2024-04-16T02:23:39.064Z,5.35
2024-04-16T02:24:41.478Z,5.38
2024-04-16T02:25:55.312Z,5.40
2024-04-16T02:26:57.862Z,5.41
2024-04-16T02:28:00.552Z,5.42
2024-04-16T02:29:03.228Z,5.42
2024-04-16T02:30:06.501Z,5.44
2024-04-16T02:31:08.979Z,5.46
2024-04-16T02:32:11.374Z,5.46
2024-04-16T02:33:16.869Z,5.47
2024-04-16T02:34:20.202Z,5.49
2024-04-16T02:35:22.793Z,5.50
2024-04-16T02:36:25.334Z,5.52
2024-04-16T02:37:27.759Z,5.53
2024-04-16T02:38:30.450Z,5.55
2024-04-16T02:39:32.891Z,5.55
2024-04-16T02:40:36.393Z,5.56
2024-04-16T02:41:38.763Z,5.57
2024-04-16T02:42:41.082Z,5.58
2024-04-16T02:43:43.430Z,5.61
2024-04-16T02:44:45.771Z,5.62
2024-04-16T02:45:48.725Z,5.63
2024-04-16T02:46:51.318Z,5.64
2024-04-16T02:47:53.779Z,5.68
2024-04-16T02:48:56.525Z,5.68
2024-04-16T02:49:58.846Z,5.69
2024-04-16T02:51:02.328Z,5.70
2024-04-16T02:52:04.989Z,5.70
2024-04-16T02:53:07.449Z,5.71
2024-04-16T02:54:09.818Z,5.71
2024-04-16T02:55:13.010Z,5.72
2024-04-16T02:56:15.468Z,5.73
2024-04-16T02:57:17.930Z,5.72
2024-04-16T02:58:20.466Z,5.72
2024-04-16T02:59:22.998Z,5.67
2024-04-16T03:00:25.387Z,5.64
2024-04-16T03:01:28.096Z,5.61
2024-04-16T03:02:30.837Z,5.63
2024-04-16T03:03:37.728Z,5.66
2024-04-16T03:04:40.642Z,5.67
2024-04-16T03:05:43.090Z,5.67
2024-04-16T03:06:45.352Z,5.69
2024-04-16T03:07:50.977Z,5.68
2024-04-16T03:08:53.355Z,5.70
2024-04-16T03:09:56.101Z,5.70
2024-04-16T03:11:02.613Z,5.71
2024-04-16T03:12:05.405Z,5.74
2024-04-16T03:13:07.918Z,5.74
2024-04-16T03:14:10.567Z,5.77
2024-04-16T03:15:13.369Z,5.78
2024-04-16T03:16:15.922Z,5.80
2024-04-16T03:17:18.737Z,5.84
2024-04-16T03:18:21.424Z,5.88
2024-04-16T03:19:23.821Z,5.95
2024-04-16T03:20:27.522Z,5.99
2024-04-16T03:21:29.855Z,6.08
2024-04-16T03:22:32.445Z,6.12
2024-04-16T03:23:34.937Z,6.17
2024-04-16T03:24:37.295Z,6.19
2024-04-16T03:25:43.782Z,6.25
2024-04-16T03:26:46.604Z,6.26
2024-04-16T03:27:48.853Z,6.28
2024-04-16T03:28:51.249Z,6.30
2024-04-16T03:29:53.593Z,6.30
2024-04-16T03:30:56.121Z,6.30
2024-04-16T03:31:58.555Z,6.24
2024-04-16T03:33:01.572Z,6.18
2024-04-16T03:34:04.058Z,6.17
2024-04-16T03:35:06.863Z,6.13
2024-04-16T03:36:09.686Z,6.12
2024-04-16T03:37:12.231Z,6.07
2024-04-16T03:38:14.614Z,6.02
2024-04-16T03:39:18.558Z,5.97
2024-04-16T03:40:20.915Z,5.95
2024-04-16T03:41:24.408Z,5.91
2024-04-16T03:42:27.351Z,5.84
2024-04-16T03:43:30.161Z,5.81
2024-04-16T03:44:32.602Z,5.77
2024-04-16T03:45:35.149Z,5.75
2024-04-16T03:46:37.892Z,5.71
2024-04-16T03:47:40.466Z,5.71
2024-04-16T03:48:43.116Z,5.62
2024-04-16T03:49:45.621Z,5.58
2024-04-16T03:50:48.060Z,5.56
2024-04-16T03:51:50.850Z,5.56
2024-04-16T03:52:53.190Z,5.54
2024-04-16T03:53:55.673Z,5.50
2024-04-16T03:54:58.182Z,5.46
2024-04-16T03:56:01.659Z,5.41
2024-04-16T03:57:04.812Z,5.44
2024-04-16T03:58:07.605Z,5.40
2024-04-16T03:59:39.181Z,5.38
2024-04-16T04:01:00.491Z,5.31
2024-04-16T04:02:04.753Z,5.23
2024-04-16T04:03:09.628Z,5.22
2024-04-16T04:04:13.184Z,5.18
2024-04-16T04:05:15.727Z,5.15
2024-04-16T04:06:18.041Z,5.12
2024-04-16T04:07:20.897Z,5.08
2024-04-16T04:08:24.076Z,5.06
2024-04-16T04:09:26.755Z,5.03
2024-04-16T04:10:33.614Z,4.96
2024-04-16T04:11:36.250Z,4.93
2024-04-16T04:12:39.252Z,4.91
2024-04-16T04:13:42.484Z,4.86
2024-04-16T04:14:45.739Z,4.86
2024-04-16T04:15:48.078Z,4.84
2024-04-16T04:16:50.745Z,4.83
2024-04-16T04:17:53.900Z,4.81
2024-04-16T04:18:56.484Z,4.79
2024-04-16T04:19:59.038Z,4.75
2024-04-16T04:21:01.413Z,4.78
2024-04-16T04:22:04.088Z,4.78
2024-04-16T04:23:10.087Z,4.76
2024-04-16T04:24:27.403Z,4.77
2024-04-16T04:25:36.585Z,4.75
2024-04-16T04:26:39.796Z,4.75
2024-04-16T04:27:43.290Z,4.75
2024-04-16T04:28:45.626Z,4.73
2024-04-16T04:29:49.576Z,4.73
2024-04-16T04:30:52.650Z,4.72
2024-04-16T04:31:54.915Z,4.78
2024-04-16T04:32:57.350Z,4.79
2024-04-16T04:33:59.602Z,4.80
2024-04-16T04:35:02.655Z,4.81
2024-04-16T04:36:05.509Z,4.83
2024-04-16T04:37:08.015Z,4.84
2024-04-16T04:38:10.329Z,4.92
2024-04-16T04:39:13.328Z,4.95
2024-04-16T04:40:16.148Z,5.03
2024-04-16T04:41:18.851Z,5.09
2024-04-16T04:42:27.483Z,5.11
2024-04-16T04:43:29.901Z,5.11
2024-04-16T04:44:32.322Z,5.13
2024-04-16T04:45:35.409Z,5.17
2024-04-16T04:46:37.858Z,5.17
2024-04-16T04:47:40.399Z,5.19
2024-04-16T04:48:43.172Z,5.25
2024-04-16T04:49:45.654Z,5.29
2024-04-16T04:50:48.340Z,5.30
2024-04-16T04:51:50.851Z,5.34
2024-04-16T04:52:53.097Z,5.34
2024-04-16T04:53:55.822Z,5.41
2024-04-16T04:54:58.255Z,5.46
2024-04-16T04:56:01.002Z,5.48
2024-04-16T04:57:03.425Z,5.55
2024-04-16T04:58:06.108Z,5.58
2024-04-16T04:59:08.958Z,5.64
2024-04-16T05:00:11.742Z,5.69
2024-04-16T05:01:14.819Z,5.78
2024-04-16T05:02:17.458Z,5.80
2024-04-16T05:03:20.259Z,5.81
2024-04-16T05:04:25.508Z,5.85
2024-04-16T05:05:27.826Z,5.86
2024-04-16T05:06:30.537Z,5.90
2024-04-16T05:07:33.423Z,5.94
2024-04-16T05:08:35.927Z,5.95
2024-04-16T05:09:38.395Z,5.94
2024-04-16T05:10:41.382Z,5.92
2024-04-16T05:11:44.078Z,6.01
2024-04-16T05:12:46.695Z,6.06
2024-04-16T05:13:49.791Z,6.12
2024-04-16T05:14:52.286Z,6.08
2024-04-16T05:15:54.725Z,6.07
2024-04-16T05:16:57.818Z,6.16
2024-04-16T05:18:00.173Z,6.21
2024-04-16T05:19:02.809Z,6.20
2024-04-16T05:20:05.877Z,6.24
2024-04-16T05:21:08.194Z,6.26
2024-04-16T05:22:11.815Z,6.32
2024-04-16T05:23:14.423Z,6.37
2024-04-16T05:24:16.822Z,6.34
2024-04-16T05:25:19.156Z,6.32
2024-04-16T05:26:23.521Z,6.34
2024-04-16T05:27:25.987Z,6.35
2024-04-16T05:28:28.090Z,6.38
2024-04-16T05:29:30.721Z,6.45
2024-04-16T05:30:32.818Z,6.51
2024-04-16T05:31:35.180Z,6.67
2024-04-16T05:32:38.746Z,6.67
2024-04-16T05:33:41.090Z,6.73
2024-04-16T05:34:43.505Z,6.72
2024-04-16T05:35:46.114Z,6.78
2024-04-16T05:36:48.385Z,6.77
2024-04-16T05:37:50.922Z,6.78
2024-04-16T05:38:53.402Z,6.83
2024-04-16T05:39:55.747Z,6.86
2024-04-16T05:40:58.162Z,6.90
2024-04-16T05:42:01.034Z,6.93
2024-04-16T05:43:03.480Z,6.91
2024-04-16T05:44:05.863Z,7.00
2024-04-16T05:45:08.436Z,7.07
2024-04-16T05:46:12.142Z,7.11
2024-04-16T05:47:14.377Z,7.09
2024-04-16T05:48:17.539Z,7.12
2024-04-16T05:49:19.937Z,7.14
2024-04-16T05:50:22.216Z,7.15
2024-04-16T05:51:24.917Z,7.16
2024-04-16T05:52:27.184Z,7.17
2024-04-16T05:53:29.920Z,7.19
2024-04-16T05:54:33.662Z,7.21
2024-04-16T05:55:36.176Z,7.21
2024-04-16T05:56:38.801Z,7.21
2024-04-16T05:57:41.337Z,7.14
2024-04-16T05:58:43.994Z,7.22
2024-04-16T05:59:46.374Z,7.22
2024-04-16T06:00:49.034Z,7.18
2024-04-16T06:01:51.471Z,7.18
2024-04-16T06:02:54.942Z,7.20
2024-04-16T06:03:58.130Z,7.13
2024-04-16T06:05:00.447Z,7.08
2024-04-16T06:06:03.048Z,7.13
2024-04-16T06:07:05.713Z,7.22
2024-04-16T06:08:09.227Z,7.26
2024-04-16T06:09:11.479Z,7.36
2024-04-16T06:10:14.030Z,7.34
2024-04-16T06:11:16.266Z,7.36
2024-04-16T06:12:18.645Z,7.33
2024-04-16T06:13:21.243Z,7.41
2024-04-16T06:14:24.367Z,7.40
2024-04-16T06:15:26.629Z,7.44
2024-04-16T06:16:29.389Z,7.52
2024-04-16T06:17:31.706Z,7.47
2024-04-16T06:18:34.123Z,7.50
2024-04-16T06:19:36.959Z,7.57
2024-04-16T06:20:39.922Z,7.58
2024-04-16T06:21:42.385Z,7.61
2024-04-16T06:22:47.905Z,7.66
2024-04-16T06:23:51.362Z,7.67
2024-04-16T06:24:53.847Z,7.62
2024-04-16T06:25:56.247Z,7.66
2024-04-16T06:26:58.685Z,7.60
2024-04-16T06:28:00.910Z,7.61
2024-04-16T06:29:04.672Z,7.55
2024-04-16T06:30:07.845Z,7.41
2024-04-16T06:31:10.284Z,7.35
2024-04-16T06:32:13.969Z,7.37
2024-04-16T06:33:17.101Z,7.39
2024-04-16T06:34:19.337Z,7.41
2024-04-16T06:35:22.021Z,7.33
2024-04-16T06:36:24.308Z,7.34
2024-04-16T06:37:26.844Z,7.38
2024-04-16T06:38:29.488Z,7.33
2024-04-16T06:39:31.837Z,7.29
2024-04-16T06:40:34.177Z,7.21
2024-04-16T06:41:36.952Z,7.19
2024-04-16T06:42:39.177Z,7.21
2024-04-16T06:43:41.898Z,7.17
2024-04-16T06:44:44.480Z,7.11
2024-04-16T06:45:47.054Z,7.09
2024-04-16T06:46:49.259Z,7.11
2024-04-16T06:47:51.907Z,7.18
2024-04-16T06:49:00.581Z,7.11
2024-04-16T06:50:11.314Z,7.05
2024-04-16T06:51:13.806Z,7.03
2024-04-16T06:52:16.193Z,7.07
2024-04-16T06:53:18.716Z,7.08
2024-04-16T06:54:21.231Z,7.09
2024-04-16T06:55:23.901Z,7.13
2024-04-16T06:56:26.605Z,7.15
2024-04-16T06:57:29.018Z,7.18
2024-04-16T06:58:31.454Z,7.17
2024-04-16T06:59:33.712Z,7.18
2024-04-16T07:00:36.401Z,7.21
2024-04-16T07:01:38.871Z,7.20
2024-04-16T07:02:41.330Z,7.21
2024-04-16T07:03:43.908Z,7.20
2024-04-16T07:04:46.925Z,7.22
2024-04-16T07:05:49.311Z,7.23
2024-04-16T07:06:52.190Z,7.24
2024-04-16T07:07:54.439Z,7.19
2024-04-16T07:08:56.797Z,7.19
2024-04-16T07:09:59.267Z,7.17
2024-04-16T07:11:01.871Z,7.25
2024-04-16T07:12:04.438Z,7.32
2024-04-16T07:13:06.983Z,7.32
2024-04-16T07:14:09.107Z,7.36
2024-04-16T07:15:11.978Z,7.40
2024-04-16T07:16:14.297Z,7.52
2024-04-16T07:17:16.991Z,7.55
2024-04-16T07:18:19.299Z,7.59
2024-04-16T07:19:22.099Z,7.66
2024-04-16T07:20:24.677Z,7.72
2024-04-16T07:21:26.963Z,7.77
2024-04-16T07:22:29.697Z,7.89
2024-04-16T07:23:32.091Z,7.90
2024-04-16T07:24:34.286Z,7.96
2024-04-16T07:25:36.680Z,7.94
2024-04-16T07:26:38.851Z,7.96
2024-04-16T07:27:41.444Z,7.81
2024-04-16T07:28:43.950Z,7.61
2024-04-16T07:29:46.896Z,7.50
2024-04-16T07:30:57.564Z,7.28
2024-04-16T07:32:04.896Z,6.81
2024-04-16T07:33:09.835Z,6.61
2024-04-16T07:34:12.856Z,6.56
2024-04-16T07:35:16.124Z,6.33
2024-04-16T07:36:18.480Z,6.34
2024-04-16T07:37:21.168Z,6.36
2024-04-16T07:38:24.061Z,6.16
2024-04-16T07:39:26.404Z,6.20
2024-04-16T07:40:29.076Z,6.25
2024-04-16T07:41:31.575Z,6.20
2024-04-16T07:42:33.829Z,6.25
2024-04-16T07:43:36.950Z,6.18
2024-04-16T07:44:39.522Z,6.27
2024-04-16T07:45:41.773Z,6.29
2024-04-16T07:46:44.592Z,6.33
2024-04-16T07:47:47.365Z,6.35
2024-04-16T07:48:49.993Z,6.34
2024-04-16T07:49:52.178Z,6.36
2024-04-16T07:50:55.176Z,6.41
2024-04-16T07:51:57.482Z,6.48
2024-04-16T07:52:59.810Z,6.52
2024-04-16T07:54:05.622Z,6.52
2024-04-16T07:55:08.098Z,6.54
2024-04-16T07:56:10.652Z,6.60
2024-04-16T07:57:13.216Z,6.67
2024-04-16T07:58:15.727Z,6.73
2024-04-16T07:59:18.835Z,6.86
2024-04-16T08:00:21.379Z,7.00
2024-04-16T08:01:23.850Z,7.07
2024-04-16T08:02:28.780Z,7.18
2024-04-16T08:03:31.908Z,7.24
2024-04-16T08:04:34.495Z,7.36
2024-04-16T08:05:38.240Z,7.39
2024-04-16T08:06:40.806Z,7.43
2024-04-16T08:07:45.323Z,7.39
2024-04-16T08:08:47.829Z,7.43
2024-04-16T08:09:52.743Z,7.43
2024-04-16T08:10:55.037Z,7.42
2024-04-16T08:11:57.425Z,7.38
2024-04-16T08:13:00.066Z,7.40
2024-04-16T08:14:02.989Z,7.39
2024-04-16T08:15:06.347Z,7.36
2024-04-16T08:16:10.180Z,7.35
2024-04-16T08:17:12.964Z,7.34
2024-04-16T08:18:16.514Z,7.32
2024-04-16T08:19:20.306Z,7.44
2024-04-16T08:20:22.928Z,7.35
2024-04-16T08:21:26.190Z,7.36
2024-04-16T08:22:28.829Z,7.27
2024-04-16T08:23:31.570Z,7.17
2024-04-16T08:24:33.791Z,7.14
2024-04-16T08:25:36.672Z,7.17
2024-04-16T08:26:38.834Z,7.25
2024-04-16T08:27:41.111Z,7.31
2024-04-16T08:28:43.697Z,7.37
2024-04-16T08:29:47.424Z,7.44
2024-04-16T08:30:50.295Z,7.42
2024-04-16T08:31:52.963Z,7.40
2024-04-16T08:32:56.247Z,7.41
2024-04-16T08:34:00.650Z,7.47
2024-04-16T08:35:03.763Z,7.46
2024-04-16T08:36:06.947Z,7.53
2024-04-16T08:37:09.430Z,7.55
2024-04-16T08:38:12.414Z,7.68
2024-04-16T08:39:14.973Z,7.83
2024-04-16T08:40:17.453Z,7.84
2024-04-16T08:41:22.896Z,7.94
2024-04-16T08:42:27.153Z,7.88
2024-04-16T08:43:33.303Z,7.86
2024-04-16T08:44:36.526Z,7.88
2024-04-16T08:45:39.834Z,7.74
2024-04-16T08:46:42.720Z,7.71
2024-04-16T08:47:46.700Z,7.70
2024-04-16T08:48:49.251Z,7.68
2024-04-16T08:49:53.852Z,7.66
2024-04-16T08:50:58.853Z,7.46
2024-04-16T08:52:02.951Z,7.33
2024-04-16T08:53:06.866Z,7.21
2024-04-16T08:54:10.717Z,7.26
2024-04-16T08:55:13.060Z,7.16
2024-04-16T08:56:16.377Z,7.09
2024-04-16T08:57:18.896Z,7.10
2024-04-16T08:58:21.057Z,7.15
2024-04-16T08:59:23.737Z,7.19
2024-04-16T09:00:26.026Z,7.18
2024-04-16T09:01:28.993Z,7.19
2024-04-16T09:02:32.910Z,7.26
2024-04-16T09:03:35.197Z,7.27
2024-04-16T09:04:38.925Z,7.34
2024-04-16T09:05:42.854Z,7.36
2024-04-16T09:06:49.014Z,7.39
2024-04-16T09:07:52.133Z,7.36
2024-04-16T09:09:05.842Z,7.38
2024-04-16T09:10:14.653Z,7.38
2024-04-16T09:11:17.127Z,7.35
2024-04-16T09:12:20.301Z,7.37
2024-04-16T09:13:23.077Z,7.35
2024-04-16T09:14:25.864Z,7.34
2024-04-16T09:15:28.131Z,7.37
2024-04-16T09:16:33.246Z,7.31
2024-04-16T09:17:36.009Z,7.31
2024-04-16T09:18:38.866Z,7.29
2024-04-16T09:19:43.042Z,7.28
2024-04-16T09:20:46.902Z,7.33
2024-04-16T09:21:49.105Z,7.31
2024-04-16T09:22:53.142Z,7.35
2024-04-16T09:23:56.607Z,7.38
2024-04-16T09:25:05.702Z,7.23
2024-04-16T09:26:17.014Z,6.88
2024-04-16T09:27:19.697Z,6.84
2024-04-16T09:28:22.045Z,6.83
2024-04-16T09:29:26.592Z,6.69
2024-04-16T09:30:29.074Z,6.70
2024-04-16T09:31:31.841Z,6.67
2024-04-16T09:32:34.132Z,6.61
2024-04-16T09:33:38.928Z,6.52
2024-04-16T09:34:45.393Z,6.57
2024-04-16T09:35:48.055Z,6.58
2024-04-16T09:36:50.663Z,6.66
2024-04-16T09:38:00.796Z,6.73
2024-04-16T09:39:05.027Z,6.80
2024-04-16T09:40:09.545Z,6.89
2024-04-16T09:41:13.073Z,6.99
2024-04-16T09:42:15.346Z,7.07
2024-04-16T09:43:19.397Z,7.16
2024-04-16T09:44:21.796Z,7.24
2024-04-16T09:45:24.469Z,7.35
2024-04-16T09:46:30.083Z,7.41
2024-04-16T09:47:33.797Z,7.37
2024-04-16T09:48:39.291Z,7.42
2024-04-16T09:49:55.153Z,7.48
2024-04-16T09:51:07.214Z,7.56
2024-04-16T09:52:10.941Z,7.64
2024-04-16T09:53:16.515Z,7.67
2024-04-16T09:54:21.111Z,7.70
2024-04-16T09:55:24.531Z,7.74
2024-04-16T09:56:29.642Z,7.80
2024-04-16T09:57:33.355Z,7.85
2024-04-16T09:58:36.338Z,7.91
2024-04-16T09:59:42.799Z,7.94
2024-04-16T10:00:47.395Z,8.01
2024-04-16T10:01:50.434Z,8.03
2024-04-16T10:02:55.574Z,8.02
2024-04-16T10:03:59.444Z,8.02
2024-04-16T10:05:03.014Z,7.99
2024-04-16T10:06:06.287Z,7.91
2024-04-16T10:07:09.285Z,7.80
2024-04-16T10:08:14.678Z,7.75
2024-04-16T10:09:20.848Z,7.69
2024-04-16T10:10:23.314Z,7.70
2024-04-16T10:11:31.690Z,7.66
2024-04-16T10:12:35.930Z,7.63
2024-04-16T10:13:40.674Z,7.63
2024-04-16T10:14:44.948Z,7.59
2024-04-16T10:15:48.947Z,7.65
2024-04-16T10:16:52.935Z,7.64
2024-04-16T10:17:58.310Z,7.64
2024-04-16T10:19:06.482Z,7.62
2024-04-16T10:20:12.207Z,7.70
2024-04-16T10:21:23.439Z,7.71
2024-04-16T10:22:44.882Z,7.78
2024-04-16T10:24:12.228Z,7.92
2024-04-16T10:25:14.839Z,8.01
2024-04-16T10:26:17.680Z,8.01
2024-04-16T10:27:27.329Z,8.05
2024-04-16T10:28:34.841Z,8.16
2024-04-16T10:29:40.363Z,8.18
2024-04-16T10:30:42.615Z,8.24
2024-04-16T10:31:51.985Z,8.31
2024-04-16T10:32:57.922Z,8.42
2024-04-16T10:34:02.473Z,8.59
2024-04-16T10:35:09.132Z,8.58
2024-04-16T10:36:16.633Z,8.63
2024-04-16T10:37:19.970Z,8.71
2024-04-16T10:38:24.472Z,8.75
2024-04-16T10:39:30.902Z,8.63
2024-04-16T10:40:33.733Z,8.63
2024-04-16T10:41:36.346Z,8.50
2024-04-16T10:42:41.726Z,8.41
2024-04-16T10:43:46.147Z,8.20
2024-04-16T10:44:48.968Z,7.70
2024-04-16T10:45:52.159Z,7.53
2024-04-16T10:46:55.326Z,7.32
2024-04-16T10:47:59.853Z,7.32
2024-04-16T10:49:02.384Z,7.26
2024-04-16T10:50:05.142Z,7.25
2024-04-16T10:51:13.877Z,7.42
2024-04-16T10:52:16.234Z,7.51
2024-04-16T10:53:21.042Z,7.65
2024-04-16T10:54:23.477Z,7.76
2024-04-16T10:55:26.919Z,7.94
2024-04-16T10:56:29.549Z,8.10
2024-04-16T10:57:32.121Z,8.18
2024-04-16T10:58:36.135Z,8.32
2024-04-16T10:59:38.870Z,8.52
2024-04-16T11:00:41.702Z,8.61
2024-04-16T11:01:45.834Z,8.83
2024-04-16T11:02:48.302Z,8.99
2024-04-16T11:03:51.192Z,9.08
2024-04-16T11:04:53.673Z,9.14
2024-04-16T11:05:58.037Z,9.15
2024-04-16T11:07:00.868Z,9.19
2024-04-16T11:08:03.964Z,9.27
2024-04-16T11:09:06.295Z,9.31
2024-04-16T11:10:08.884Z,9.54
2024-04-16T11:11:11.305Z,9.62
2024-04-16T11:12:13.996Z,9.72
2024-04-16T11:13:19.956Z,9.68
2024-04-16T11:14:22.567Z,9.73
2024-04-16T11:15:24.890Z,9.64
2024-04-16T11:16:28.686Z,9.70
2024-04-16T11:17:31.379Z,9.86
2024-04-16T11:18:33.759Z,10.10
2024-04-16T11:19:37.218Z,10.13
2024-04-16T11:20:41.241Z,10.29
2024-04-16T11:21:43.575Z,10.29
2024-04-16T11:22:46.471Z,10.44
2024-04-16T11:23:50.252Z,10.62
2024-04-16T11:24:54.695Z,10.75
2024-04-16T11:27:03.167Z,11.09
2024-04-16T11:28:05.704Z,11.29
2024-04-16T11:29:08.508Z,11.26
2024-04-16T11:30:13.916Z,11.06
2024-04-16T11:31:19.174Z,11.08
2024-04-16T11:32:23.078Z,11.24
2024-04-16T11:33:35.766Z,11.05
2024-04-16T11:34:39.895Z,11.07
2024-04-16T11:35:42.562Z,10.97
2024-04-16T11:36:52.322Z,10.78
2024-04-16T11:37:54.699Z,10.56
2024-04-16T11:38:57.490Z,10.48
2024-04-16T11:40:00.446Z,10.28
2024-04-16T11:41:06.019Z,10.17
2024-04-16T11:42:14.471Z,9.98
2024-04-16T11:43:16.938Z,9.91
2024-04-16T11:44:19.864Z,9.77
2024-04-16T11:45:23.566Z,9.72
2024-04-16T11:46:26.081Z,9.69
2024-04-16T11:47:28.456Z,9.69
2024-04-16T11:48:36.807Z,9.72
2024-04-16T11:49:40.013Z,9.67
2024-04-16T11:50:42.570Z,9.66
2024-04-16T11:51:44.936Z,9.65
2024-04-16T11:52:47.367Z,9.61
2024-04-16T11:53:49.597Z,9.60
2024-04-16T11:54:53.149Z,9.62
2024-04-16T11:55:55.382Z,9.65
2024-04-16T11:56:57.640Z,9.62
2024-04-16T11:58:00.618Z,9.58
2024-04-16T11:59:02.981Z,9.59
2024-04-16T12:00:06.162Z,9.53
2024-04-16T12:01:14.218Z,9.57
2024-04-16T12:02:16.608Z,9.57
2024-04-16T12:03:19.033Z,9.56
2024-04-16T12:04:21.817Z,9.54
2024-04-16T12:05:24.856Z,9.49
2024-04-16T12:06:27.027Z,9.41
2024-04-16T12:07:29.864Z,9.40
2024-04-16T12:08:32.240Z,9.43
2024-04-16T12:09:35.248Z,9.44
2024-04-16T12:10:37.954Z,9.50
2024-04-16T12:11:40.871Z,9.54
2024-04-16T12:12:43.213Z,9.63
2024-04-16T12:13:46.453Z,9.67
2024-04-16T12:14:49.031Z,9.62
2024-04-16T12:15:51.914Z,9.70
2024-04-16T12:16:54.489Z,9.71
2024-04-16T12:17:57.461Z,9.98
2024-04-16T12:19:00.950Z,10.24
2024-04-16T12:20:04.056Z,10.18
2024-04-16T12:21:06.901Z,10.12
2024-04-16T12:22:09.349Z,10.12
2024-04-16T12:23:12.062Z,10.26
2024-04-16T12:24:14.879Z,10.24
2024-04-16T12:25:17.383Z,10.30
2024-04-16T12:26:20.835Z,10.27
2024-04-16T12:27:23.636Z,10.22
2024-04-16T12:28:26.236Z,10.24
2024-04-16T12:29:28.783Z,10.19
2024-04-16T12:30:32.825Z,10.26
2024-04-16T12:31:35.287Z,10.42
2024-04-16T12:32:37.982Z,10.59
2024-04-16T12:33:40.498Z,10.84
2024-04-16T12:34:43.029Z,10.94
2024-04-16T12:35:45.682Z,10.89
2024-04-16T12:36:48.367Z,10.82
2024-04-16T12:37:50.708Z,10.78
2024-04-16T12:38:54.526Z,10.76
2024-04-16T12:39:56.812Z,10.68
2024-04-16T12:41:01.123Z,10.73
2024-04-16T12:42:04.795Z,10.69
2024-04-16T12:43:07.163Z,10.65
2024-04-16T12:44:09.394Z,10.67
2024-04-16T12:45:12.006Z,10.58
2024-04-16T12:46:14.454Z,10.54
2024-04-16T12:47:16.947Z,10.47
2024-04-16T12:48:21.603Z,10.42
2024-04-16T12:49:25.975Z,10.40
2024-04-16T12:50:28.264Z,10.41
2024-04-16T12:51:30.851Z,10.54
2024-04-16T12:52:33.674Z,10.77
2024-04-16T12:53:36.529Z,10.91
2024-04-16T12:54:41.440Z,10.90
2024-04-16T12:55:43.875Z,10.98
2024-04-16T12:56:50.788Z,11.07
2024-04-16T12:57:54.941Z,11.05
2024-04-16T12:58:57.151Z,11.08
2024-04-16T12:59:59.547Z,10.95
2024-04-16T13:01:02.502Z,11.09
2024-04-16T13:02:05.182Z,11.12
2024-04-16T13:03:09.510Z,11.06
2024-04-16T13:04:12.224Z,11.12
2024-04-16T13:05:15.199Z,11.17
2024-04-16T13:06:17.957Z,11.21
2024-04-16T13:07:20.814Z,11.21
2024-04-16T13:08:24.006Z,11.10
2024-04-16T13:09:27.177Z,11.04
2024-04-16T13:10:29.794Z,11.02
2024-04-16T13:11:32.139Z,10.95
2024-04-16T13:12:34.479Z,10.83
2024-04-16T13:13:39.501Z,10.67
2024-04-16T13:14:41.882Z,10.59
2024-04-16T13:15:45.088Z,10.52
2024-04-16T13:16:47.670Z,10.55
2024-04-16T13:17:49.946Z,10.61
2024-04-16T13:18:52.838Z,10.51
2024-04-16T13:19:55.538Z,10.49
2024-04-16T13:20:57.978Z,10.39
2024-04-16T13:22:01.088Z,10.39
2024-04-16T13:23:03.908Z,10.35
2024-04-16T13:24:06.675Z,10.22
2024-04-16T13:25:09.373Z,10.18
2024-04-16T13:26:11.951Z,10.16
2024-04-16T13:27:14.279Z,10.12
2024-04-16T13:28:16.530Z,10.13
2024-04-16T13:29:22.673Z,10.11
2024-04-16T13:30:26.572Z,10.09
2024-04-16T13:31:28.921Z,10.09
2024-04-16T13:32:32.092Z,10.13
2024-04-16T13:33:34.405Z,10.10
2024-04-16T13:34:38.111Z,10.08
2024-04-16T13:35:40.381Z,10.09
2024-04-16T13:36:42.560Z,10.04
2024-04-16T13:37:45.292Z,9.95
2024-04-16T13:38:47.643Z,9.88
2024-04-16T13:39:50.407Z,9.82
2024-04-16T13:40:52.981Z,9.82
2024-04-16T13:41:56.200Z,9.74
2024-04-16T13:42:58.299Z,9.72
2024-04-16T13:44:00.905Z,9.67
2024-04-16T13:45:03.454Z,9.72
2024-04-16T13:46:06.836Z,9.69
2024-04-16T13:47:09.647Z,9.65
2024-04-16T13:48:12.965Z,9.63
2024-04-16T13:49:15.625Z,9.61
2024-04-16T13:50:22.797Z,9.61
2024-04-16T13:51:25.151Z,9.58
2024-04-16T13:52:27.604Z,9.54
2024-04-16T13:53:30.439Z,9.50
2024-04-16T13:54:33.123Z,9.52
2024-04-16T13:55:37.382Z,9.50
2024-04-16T13:56:39.972Z,9.51
2024-04-16T13:57:42.441Z,9.54
2024-04-16T13:58:44.824Z,9.53
2024-04-16T13:59:47.788Z,9.54
2024-04-16T14:00:51.032Z,9.56
2024-04-16T14:01:53.379Z,9.51